Time;durP1;ratioP1;P1;durP2;ratioP2;P2;SDS_P1;SDS_P2;PMS_P1;PMS_P2;Temp;Humidity;BMP_temperature;BMP_pressure;BME280_temperature;BME280_humidity;BME280_pressure;Samples;Min_cycle;Max_cycle;Signal;HPM_P1;HPM_P2
2023/06/24 00:02:05;;;;;;;5.77;5.33;;;;;;;15.85;100.00;97232.66;4954614;28;102365;-62
2023/06/24 00:04:32;;;;;;;5.90;5.40;;;;;;;15.87;100.00;97231.34;4954438;28;105303;-62
2023/06/24 00:07:00;;;;;;;6.03;5.40;;;;;;;15.92;100.00;97233.25;4953730;28;105496;-62
2023/06/24 00:09:28;;;;;;;6.00;5.50;;;;;;;15.81;100.00;97239.66;4957528;28;101880;-62
2023/06/24 00:11:55;;;;;;;6.60;5.63;;;;;;;15.91;100.00;97234.34;4969896;28;105056;-62
2023/06/24 00:14:26;;;;;;;6.13;5.53;;;;;;;15.96;100.00;97234.34;4953961;28;102448;-62
2023/06/24 00:16:53;;;;;;;5.93;5.43;;;;;;;16.03;100.00;97221.50;4954250;28;105135;-62
2023/06/24 00:19:20;;;;;;;6.10;5.00;;;;;;;16.05;100.00;97228.22;4971475;28;102738;-62
2023/06/24 00:21:48;;;;;;;5.67;5.07;;;;;;;16.06;100.00;97221.75;4970438;28;102320;-62
2023/06/24 00:24:15;;;;;;;5.27;4.77;;;;;;;16.16;100.00;97226.34;4954129;28;105790;-62
2023/06/24 00:26:41;;;;;;;5.10;4.63;;;;;;;16.07;100.00;97233.31;4953342;28;105014;-62
2023/06/24 00:29:08;;;;;;;5.73;5.20;;;;;;;15.94;100.00;97231.09;4971684;28;101822;-62
2023/06/24 00:31:39;;;;;;;4.97;4.57;;;;;;;15.78;100.00;97230.25;4956655;28;104936;-62
2023/06/24 00:34:06;;;;;;;5.40;4.90;;;;;;;15.75;100.00;97221.94;4954018;28;101935;-62
2023/06/24 00:36:35;;;;;;;5.57;4.73;;;;;;;15.73;100.00;97224.06;4953847;28;104878;-62
2023/06/24 00:39:03;;;;;;;5.30;4.80;;;;;;;15.85;100.00;97221.94;4970807;28;103133;-62
2023/06/24 00:41:30;;;;;;;5.17;4.77;;;;;;;15.90;100.00;97222.78;4970094;28;101901;-62
2023/06/24 00:43:58;;;;;;;5.47;4.97;;;;;;;15.84;100.00;97217.66;4953691;28;105527;-62
2023/06/24 00:46:26;;;;;;;5.60;5.03;;;;;;;15.80;100.00;97209.34;4970210;28;102489;-62
2023/06/24 00:48:57;;;;;;;5.83;5.27;;;;;;;15.72;100.00;97201.81;4971248;28;102950;-62
2023/06/24 00:51:26;;;;;;;6.23;5.63;;;;;;;15.61;100.00;97202.84;4953654;28;104946;-62
2023/06/24 00:53:53;;;;;;;6.10;5.60;;;;;;;15.54;100.00;97199.56;4956259;28;105592;-62
2023/06/24 00:56:22;;;;;;;5.87;5.37;;;;;;;15.63;100.00;97202.56;4953411;28;105713;-62
2023/06/24 00:58:50;;;;;;;5.50;5.07;;;;;;;15.73;100.00;97197.22;4952921;28;104356;-62
2023/06/24 01:01:18;;;;;;;5.57;5.07;;;;;;;15.76;100.00;97192.16;4953491;28;102211;-62
2023/06/24 01:03:45;;;;;;;6.13;5.27;;;;;;;15.69;100.00;97190.81;4971349;28;102892;-62
2023/06/24 01:06:14;;;;;;;5.60;5.10;;;;;;;15.67;100.00;97191.06;4970615;28;103058;-62
2023/06/24 01:08:41;;;;;;;6.03;5.40;;;;;;;15.71;100.00;97183.28;4970954;28;101925;-62
2023/06/24 01:11:08;;;;;;;6.13;5.47;;;;;;;15.68;100.00;97186.50;4953335;28;105198;-62
2023/06/24 01:13:36;;;;;;;6.37;5.70;;;;;;;15.70;100.00;97179.00;4956055;28;105642;-62
2023/06/24 01:16:11;;;;;;;5.50;5.10;;;;;;;15.68;100.00;97179.25;4953294;28;105233;-62
2023/06/24 01:18:43;;;;;;;5.70;5.20;;;;;;;15.67;100.00;97177.66;4970265;28;102880;-62
2023/06/24 01:21:21;;;;;;;5.77;5.20;;;;;;;15.75;100.00;97184.38;4953267;28;102108;-62
2023/06/24 01:24:29;;;;;;;5.30;4.80;;;;;;;15.66;100.00;97170.69;4953248;28;103638;-62
2023/06/24 01:27:28;;;;;;;4.90;4.40;;;;;;;15.68;100.00;97165.84;4952383;28;105386;-62
2023/06/24 01:30:21;;;;;;;5.37;4.87;;;;;;;15.72;100.00;97166.94;4953127;28;102033;-62
2023/06/24 01:32:55;;;;;;;5.33;4.83;;;;;;;15.63;100.00;97171.19;4940857;28;105648;-62
2023/06/24 01:35:24;;;;;;;4.67;4.27;;;;;;;15.64;100.00;97172.00;4952231;28;105306;-62
2023/06/24 01:37:52;;;;;;;4.60;4.20;;;;;;;15.68;100.00;97171.22;4956360;28;101907;-62
2023/06/24 01:40:26;;;;;;;4.83;4.43;;;;;;;15.55;100.00;97171.72;4952118;28;105287;-62
2023/06/24 01:42:54;;;;;;;5.43;4.40;;;;;;;15.52;100.00;97176.78;4970804;28;102292;-62
2023/06/24 01:45:26;;;;;;;4.60;4.17;;;;;;;15.52;100.00;97168.72;4952411;28;104315;-62
2023/06/24 01:48:00;;;;;;;4.53;4.10;;;;;;;15.53;100.00;97165.00;4969508;28;103182;-62
2023/06/24 01:50:31;;;;;;;4.33;3.93;;;;;;;15.51;100.00;97161.75;4952768;28;102230;-62
2023/06/24 01:52:59;;;;;;;4.60;4.20;;;;;;;15.58;100.00;97167.72;4952713;28;105166;-62
2023/06/24 01:55:29;;;;;;;4.30;3.93;;;;;;;15.63;100.00;97167.69;4969495;28;102766;-62
2023/06/24 01:57:59;;;;;;;4.00;3.70;;;;;;;15.66;100.00;97180.59;4952740;28;101818;-62
2023/06/24 02:00:27;;;;;;;4.47;3.73;;;;;;;15.59;100.00;97174.69;4955377;28;105739;-62
2023/06/24 02:02:58;;;;;;;4.13;3.80;;;;;;;15.67;100.00;97177.66;4952654;28;101910;-62
2023/06/24 02:05:26;;;;;;;5.00;4.07;;;;;;;15.70;100.00;97179.00;4952388;28;105217;-62
2023/06/24 02:07:56;;;;;;;4.30;3.90;;;;;;;15.68;100.00;97176.56;4951767;28;105603;-62
2023/06/24 02:10:24;;;;;;;4.10;3.80;;;;;;;15.74;100.00;97170.16;4952506;28;102351;-62
2023/06/24 02:12:54;;;;;;;4.07;3.77;;;;;;;15.78;100.00;97189.22;4970101;28;102595;-62
2023/06/24 02:15:23;;;;;;;4.00;3.70;;;;;;;15.75;100.00;97189.75;4951967;28;104034;-62
2023/06/24 02:17:51;;;;;;;4.00;3.70;;;;;;;15.76;100.00;97192.16;4952399;28;101945;-62
2023/06/24 02:20:21;;;;;;;3.87;3.50;;;;;;;15.79;100.00;97188.13;4952370;28;105276;-62
2023/06/24 02:22:49;;;;;;;3.80;3.50;;;;;;;15.82;100.00;97185.75;4955092;28;105569;-62
2023/06/24 02:25:16;;;;;;;4.63;3.63;;;;;;;15.84;100.00;97185.47;4952110;28;105599;-62
2023/06/24 02:27:43;;;;;;;4.17;3.77;;;;;;;15.87;100.00;97183.06;4951703;28;105295;-62
2023/06/24 02:30:11;;;;;;;3.77;3.47;;;;;;;15.87;100.00;97183.06;4952145;28;101974;-62
2023/06/24 02:32:38;;;;;;;3.87;3.57;;;;;;;15.88;100.00;97186.56;4969986;28;102749;-62
2023/06/24 02:35:07;;;;;;;3.83;3.53;;;;;;;15.88;100.00;97181.19;4969233;28;102845;-62
2023/06/24 02:37:35;;;;;;;4.77;3.70;;;;;;;15.86;100.00;97177.97;4952213;28;101947;-62
2023/06/24 02:40:04;;;;;;;4.20;3.80;;;;;;;15.88;100.00;97178.50;4969666;28;102866;-62
2023/06/24 02:42:30;;;;;;;4.23;3.87;;;;;;;15.87;100.00;97182.28;4951275;28;105347;-62
2023/06/24 02:44:57;;;;;;;4.90;4.00;;;;;;;15.93;100.00;97184.72;4956008;28;102066;-62
2023/06/24 02:47:25;;;;;;;4.77;3.70;;;;;;;15.95;100.00;97182.56;4950802;28;105925;-62
2023/06/24 02:49:56;;;;;;;3.80;3.50;;;;;;;15.94;100.00;97196.22;4969440;28;101758;-62
2023/06/24 02:52:23;;;;;;;3.97;3.40;;;;;;;16.01;100.00;97194.91;4951699;28;105700;-62
2023/06/24 02:54:51;;;;;;;3.77;3.47;;;;;;;15.99;100.00;97190.88;4950129;28;105231;-62
2023/06/24 02:57:42;;;;;;;3.63;3.33;;;;;;;16.01;100.00;97192.22;4966777;28;102114;-62
2023/06/24 03:00:33;;;;;;;3.83;3.53;;;;;;;15.89;100.00;97194.34;4970351;28;102210;-62
2023/06/24 03:03:11;;;;;;;3.57;3.27;;;;;;;15.97;100.00;97198.41;4972345;28;104082;-62
2023/06/24 03:05:48;;;;;;;3.80;3.40;;;;;;;16.00;100.00;97203.22;4955488;28;101883;-62
2023/06/24 03:08:16;;;;;;;3.50;3.20;;;;;;;16.01;100.00;97205.66;4958007;28;105555;-62
2023/06/24 03:10:45;;;;;;;3.93;3.50;;;;;;;15.99;100.00;97204.28;4955168;28;101968;-62
2023/06/24 03:13:18;;;;;;;3.27;3.00;;;;;;;15.95;100.00;97212.06;4955083;28;104694;-62
2023/06/24 03:15:50;;;;;;;3.77;3.30;;;;;;;15.98;100.00;97218.78;4954439;28;105558;-62
2023/06/24 03:18:17;;;;;;;3.93;3.33;;;;;;;16.01;100.00;97215.56;4955070;28;102103;-62
2023/06/24 03:20:47;;;;;;;3.83;3.43;;;;;;;16.00;100.00;97214.78;4971323;28;105115;-62
2023/06/24 03:23:17;;;;;;;3.50;3.20;;;;;;;16.03;100.00;97221.50;4970749;28;105151;-62
2023/06/24 03:25:46;;;;;;;4.33;3.20;;;;;;;16.03;100.00;97213.44;4954951;28;101991;-62
2023/06/24 03:28:13;;;;;;;3.33;3.03;;;;;;;16.01;100.00;97219.06;4957808;28;105234;-62
2023/06/24 03:30:47;;;;;;;3.70;3.40;;;;;;;15.94;100.00;97215.81;4954819;28;101904;-62
2023/06/24 03:33:18;;;;;;;4.07;3.63;;;;;;;15.94;100.00;97221.19;4954743;28;105466;-62
2023/06/24 03:35:46;;;;;;;3.53;3.20;;;;;;;15.91;100.00;97218.25;4953930;28;105395;-62
2023/06/24 03:38:18;;;;;;;4.30;3.43;;;;;;;15.95;100.00;97230.84;4954943;28;101959;-62
2023/06/24 03:40:48;;;;;;;3.83;3.53;;;;;;;15.99;100.00;97231.13;4954700;28;104711;-62
2023/06/24 03:43:15;;;;;;;3.77;3.47;;;;;;;15.97;100.00;97227.91;4954166;28;105775;-62
2023/06/24 03:45:42;;;;;;;4.07;3.77;;;;;;;16.01;100.00;97237.03;4972304;28;101997;-62
2023/06/24 03:48:09;;;;;;;3.63;3.33;;;;;;;16.05;100.00;97232.75;4954307;28;104855;-62
2023/06/24 03:50:36;;;;;;;4.60;3.57;;;;;;;16.09;100.00;97234.63;4957265;28;105867;-62
2023/06/24 03:53:03;;;;;;;3.77;3.33;;;;;;;16.09;100.00;97244.56;4954438;28;105704;-62
2023/06/24 03:55:30;;;;;;;5.00;4.50;;;;;;;16.13;100.00;97253.72;4953650;28;105168;-62
2023/06/24 03:58:00;;;;;;;3.80;3.50;;;;;;;16.07;100.00;97252.09;4954429;28;102734;-62
2023/06/24 04:00:27;;;;;;;4.30;3.43;;;;;;;16.09;100.00;97249.94;4954506;28;104845;-62
2023/06/24 04:02:54;;;;;;;4.00;3.70;;;;;;;16.14;100.00;97248.06;4953781;28;105767;-62
2023/06/24 04:05:21;;;;;;;4.60;4.00;;;;;;;16.14;100.00;97255.31;4954274;28;101914;-62
2023/06/24 04:07:50;;;;;;;4.30;3.90;;;;;;;16.12;100.00;97250.22;4953977;28;105378;-62
2023/06/24 04:10:18;;;;;;;4.37;3.70;;;;;;;16.06;100.00;97253.13;4953687;28;105520;-62
2023/06/24 04:12:45;;;;;;;5.17;4.13;;;;;;;15.98;100.00;97256.34;4957746;28;102159;-62
2023/06/24 04:15:13;;;;;;;5.53;4.10;;;;;;;15.70;100.00;97260.25;4953485;28;104791;-62
2023/06/24 04:17:40;;;;;;;3.87;3.57;;;;;;;15.58;100.00;97269.59;4954131;28;101989;-62
2023/06/24 04:20:09;;;;;;;4.00;3.70;;;;;;;15.62;100.00;97257.25;4954088;28;105384;-62
2023/06/24 04:22:37;;;;;;;4.03;3.70;;;;;;;15.80;100.00;97259.50;4953529;28;105310;-62
2023/06/24 04:25:05;;;;;;;4.40;4.00;;;;;;;15.92;100.00;97257.41;4954201;28;102047;-62
2023/06/24 04:27:33;;;;;;;4.30;3.90;;;;;;;15.97;100.00;97252.84;4953885;28;105678;-62
2023/06/24 04:30:00;;;;;;;4.20;3.80;;;;;;;16.03;100.00;97257.16;4953209;28;105466;-62
2023/06/24 04:32:28;;;;;;;4.13;3.80;;;;;;;16.10;100.00;97256.91;4953856;28;101900;-62
2023/06/24 04:34:55;;;;;;;3.87;3.57;;;;;;;16.16;100.00;97240.56;4956634;28;105241;-62
2023/06/24 04:37:22;;;;;;;3.77;3.43;;;;;;;16.27;100.00;97244.06;4953710;28;102319;-62
2023/06/24 04:39:50;;;;;;;3.63;3.33;;;;;;;16.25;100.00;97247.03;4954043;28;103618;-62
2023/06/24 04:42:17;;;;;;;4.00;3.60;;;;;;;16.29;100.00;97250.78;4971071;28;102681;-62
2023/06/24 04:44:44;;;;;;;5.17;3.70;;;;;;;16.25;100.00;97248.91;4971436;28;101848;-62
2023/06/24 04:47:13;;;;;;;3.73;3.43;;;;;;;16.20;100.00;97256.94;4952530;28;105168;-62
2023/06/24 04:49:42;;;;;;;4.07;3.57;;;;;;;16.27;100.00;97252.94;4969257;28;102721;-62
2023/06/24 04:52:09;;;;;;;3.87;3.57;;;;;;;16.29;100.00;97256.16;4952781;28;102074;-62
2023/06/24 04:54:35;;;;;;;3.70;3.40;;;;;;;16.18;100.00;97259.91;4970396;28;102057;-62
2023/06/24 04:57:02;;;;;;;4.83;4.00;;;;;;;16.07;100.00;97247.50;4955078;28;103752;-62
2023/06/24 04:59:29;;;;;;;4.57;3.73;;;;;;;16.00;100.00;97248.84;4970158;28;102455;-62
2023/06/24 05:01:56;;;;;;;4.17;3.87;;;;;;;16.01;100.00;97253.13;4951671;28;105296;-62
2023/06/24 05:04:23;;;;;;;4.10;3.73;;;;;;;16.16;100.00;97254.00;4969863;28;102095;-62
2023/06/24 05:06:51;;;;;;;4.47;4.07;;;;;;;16.19;100.00;97258.81;4952150;28;105786;-62
2023/06/24 05:09:18;;;;;;;5.17;3.90;;;;;;;16.20;100.00;97263.13;4951483;28;104385;-62
2023/06/24 05:11:45;;;;;;;3.90;3.60;;;;;;;16.26;100.00;97263.94;4952261;28;101920;-62
2023/06/24 05:14:12;;;;;;;4.23;3.83;;;;;;;16.36;100.00;97255.91;4969969;28;102873;-62
2023/06/24 05:16:39;;;;;;;4.20;3.80;;;;;;;16.33;100.00;97259.13;4951266;28;105688;-62
2023/06/24 05:19:06;;;;;;;4.30;3.90;;;;;;;16.51;100.00;97253.31;4972140;28;101782;-62
2023/06/24 05:21:33;;;;;;;4.00;3.70;;;;;;;16.65;100.00;97262.44;4951290;28;105975;-62
2023/06/24 05:24:02;;;;;;;4.00;3.60;;;;;;;16.74;100.00;97258.16;4969624;28;101891;-62
2023/06/24 05:26:29;;;;;;;4.10;3.80;;;;;;;16.86;100.00;97261.38;4969669;28;102559;-62
2023/06/24 05:28:56;;;;;;;4.13;3.77;;;;;;;16.97;100.00;97257.59;4951341;28;106110;-62
2023/06/24 05:31:22;;;;;;;4.10;3.73;;;;;;;17.10;100.00;97252.50;4969394;28;102154;-62
2023/06/24 05:33:49;;;;;;;4.10;3.70;;;;;;;17.16;100.00;97262.16;4969578;28;102557;-62
2023/06/24 05:36:16;;;;;;;3.47;3.23;;;;;;;17.20;100.00;97267.81;4968703;28;103572;-62
2023/06/24 05:38:43;;;;;;;5.47;3.77;;;;;;;17.26;100.00;97266.72;4955038;28;101886;-62
2023/06/24 05:41:11;;;;;;;3.27;3.00;;;;;;;17.35;100.00;97271.28;4968847;28;101823;-62
2023/06/24 05:43:38;;;;;;;4.87;3.87;;;;;;;17.43;100.00;97273.44;4969197;28;101827;-62
2023/06/24 05:46:05;;;;;;;4.57;3.33;;;;;;;17.50;100.00;97276.66;4919077;28;1425774;-62
2023/06/24 05:48:32;;;;;;;4.37;3.97;;;;;;;17.52;100.00;97268.31;4969928;28;102574;-62
2023/06/24 05:50:59;;;;;;;4.23;3.83;;;;;;;17.56;100.00;97264.00;4970348;28;101854;-62
2023/06/24 05:53:26;;;;;;;5.67;4.20;;;;;;;17.72;100.00;97271.75;4970432;28;102423;-62
2023/06/24 05:55:53;;;;;;;4.30;3.60;;;;;;;17.66;100.00;97259.41;4951922;28;105389;-62
2023/06/24 05:58:21;;;;;;;3.87;3.43;;;;;;;17.62;100.00;97271.81;4970366;28;101916;-62
2023/06/24 06:00:48;;;;;;;3.37;2.97;;;;;;;17.45;100.00;97257.03;4955305;28;105732;-62
2023/06/24 06:03:15;;;;;;;3.93;3.47;;;;;;;17.57;100.00;97260.25;4952577;28;101883;-62
2023/06/24 06:05:42;;;;;;;3.87;3.43;;;;;;;17.47;100.00;97254.88;4968740;28;105345;-62
2023/06/24 06:08:09;;;;;;;3.90;3.60;;;;;;;17.57;100.00;97254.84;4951870;28;105164;-62
2023/06/24 06:10:36;;;;;;;4.30;3.90;;;;;;;17.55;100.00;97262.41;4952508;28;102329;-62
2023/06/24 06:13:03;;;;;;;4.20;3.73;;;;;;;17.73;100.00;97256.44;4952516;28;105528;-62
2023/06/24 06:15:31;;;;;;;4.50;4.10;;;;;;;17.87;100.00;97252.09;4951528;28;105531;-62
2023/06/24 06:17:58;;;;;;;4.20;3.70;;;;;;;18.06;100.00;97261.13;4952366;28;101887;-62
2023/06/24 06:20:25;;;;;;;3.97;3.60;;;;;;;18.02;100.00;97263.59;4952385;28;105506;-62
2023/06/24 06:22:52;;;;;;;4.73;4.33;;;;;;;18.13;100.00;97257.06;4954985;28;105547;-62
2023/06/24 06:25:18;;;;;;;4.07;3.67;;;;;;;17.99;100.00;97263.34;4968557;28;105179;-62
2023/06/24 06:27:45;;;;;;;4.00;3.37;;;;;;;18.09;100.00;97265.97;4968096;28;105061;-62
2023/06/24 06:30:14;;;;;;;3.33;3.03;;;;;;;18.18;100.00;97256.22;4968376;28;102285;-62
2023/06/24 06:32:43;;;;;;;3.77;3.47;;;;;;;18.16;100.00;97263.78;4952114;28;105341;-62
2023/06/24 06:35:09;;;;;;;4.30;3.60;;;;;;;18.33;100.00;97262.38;4951604;28;105750;-62
2023/06/24 06:37:36;;;;;;;3.27;2.97;;;;;;;18.24;100.00;97247.84;4951941;28;101943;-62
2023/06/24 06:40:03;;;;;;;3.50;3.20;;;;;;;18.00;100.00;97256.88;4952080;28;105536;-62
2023/06/24 06:42:31;;;;;;;3.37;3.07;;;;;;;18.31;100.00;97253.72;4951406;28;105020;-62
2023/06/24 06:44:57;;;;;;;5.23;3.17;;;;;;;18.48;100.00;97254.19;4955334;28;101939;-62
2023/06/24 06:47:24;;;;;;;3.07;2.77;;;;;;;18.63;100.00;97256.78;4951043;28;105976;-62
2023/06/24 06:49:53;;;;;;;3.00;2.80;;;;;;;18.63;100.00;97251.41;4951862;28;101881;-62
2023/06/24 06:52:19;;;;;;;3.00;2.80;;;;;;;18.47;100.00;97259.88;4951972;28;105417;-62
2023/06/24 06:54:46;;;;;;;4.00;2.97;;;;;;;18.42;100.00;97258.00;4951208;28;105505;-62
2023/06/24 06:57:13;;;;;;;4.77;2.70;;;;;;;18.50;100.00;97262.00;4951878;28;101944;-62
2023/06/24 06:59:40;;;;;;;3.57;2.90;;;;;;;18.63;100.00;97261.41;4951891;28;104794;-62
2023/06/24 07:02:07;;;;;;;2.83;2.63;;;;;;;18.72;100.00;97265.09;4951143;28;106088;-62
2023/06/24 07:04:34;;;;;;;3.07;2.77;;;;;;;18.73;100.00;97272.91;4951785;28;101930;-62
2023/06/24 07:07:02;;;;;;;3.07;2.37;;;;;;;18.84;100.00;97270.94;4954558;28;102639;-62
2023/06/24 07:09:29;;;;;;;3.67;2.87;;;;;;;18.85;100.00;97277.94;4951754;28;101926;-62
2023/06/24 07:11:56;;;;;;;2.73;2.53;;;;;;;18.89;100.00;97273.59;4951726;28;105540;-62
2023/06/24 07:14:23;;;;;;;4.90;2.97;;;;;;;19.00;100.00;97277.81;4950992;28;105615;-62
2023/06/24 07:16:50;;;;;;;2.97;2.67;;;;;;;19.12;100.00;97272.88;4951522;28;101894;-62
2023/06/24 07:19:17;;;;;;;3.00;2.70;;;;;;;19.43;100.00;97276.91;4969384;28;102540;-62
2023/06/24 07:21:43;;;;;;;2.60;2.30;;;;;;;19.50;100.00;97272.81;4950862;28;104060;-62
2023/06/24 07:24:12;;;;;;;3.40;2.50;;;;;;;19.28;100.00;97275.16;4951594;28;101806;-62
2023/06/24 07:26:39;;;;;;;2.53;2.33;;;;;;;19.44;100.00;97273.13;4951544;28;105597;-62
2023/06/24 07:29:07;;;;;;;2.53;2.30;;;;;;;19.66;100.00;97276.97;4954361;28;101861;-62
2023/06/24 07:31:34;;;;;;;4.27;2.80;;;;;;;19.64;100.00;97278.31;4969253;28;102651;-62
2023/06/24 07:34:01;;;;;;;3.60;2.50;;;;;;;19.75;100.00;97279.81;4950787;28;105603;-62
2023/06/24 07:36:28;;;;;;;4.03;2.60;;;;;;;19.97;100.00;97282.81;4951323;28;102018;-62
2023/06/24 07:38:55;;;;;;;6.03;2.50;;;;;;;19.97;100.00;97274.72;4951364;28;105636;-62
2023/06/24 07:41:23;;;;;;;2.70;2.30;;;;;;;20.26;100.00;97278.16;4968558;28;102878;-62
2023/06/24 07:43:50;;;;;;;2.67;2.47;;;;;;;20.41;100.00;97269.84;4954407;28;101907;-62
2023/06/24 07:46:17;;;;;;;3.37;2.57;;;;;;;20.44;100.00;97274.69;4954136;28;105655;-62
2023/06/24 07:48:44;;;;;;;2.53;2.27;;;;;;;20.80;100.00;97273.06;4957525;28;105033;-62
2023/06/24 07:51:11;;;;;;;2.50;1.97;;;;;;;20.96;100.00;97274.47;4971122;28;105767;-62
2023/06/24 07:53:37;;;;;;;2.50;2.30;;;;;;;21.16;100.00;97271.44;4953906;28;105476;-62
2023/06/24 07:56:05;;;;;;;3.20;2.30;;;;;;;21.23;100.00;97269.97;4954564;28;101938;-62
2023/06/24 07:58:35;;;;;;;2.87;2.37;;;;;;;21.42;100.00;97275.34;4954411;28;105143;-62
2023/06/24 08:01:01;;;;;;;2.57;2.00;;;;;;;21.35;100.00;97273.00;4953778;28;103802;-62
2023/06/24 08:03:28;;;;;;;2.73;2.13;;;;;;;21.48;100.00;97271.44;4954386;28;101908;-62
2023/06/24 08:05:56;;;;;;;2.73;2.53;;;;;;;21.47;100.00;97276.03;4954439;28;105488;-62
2023/06/24 08:08:23;;;;;;;2.67;2.20;;;;;;;21.54;100.00;97267.53;4953732;28;106058;-62
2023/06/24 08:10:50;;;;;;;1.93;1.83;;;;;;;21.38;100.00;97266.19;4957645;28;101892;-62
2023/06/24 08:13:17;;;;;;;2.47;1.67;;;;;;;21.50;100.00;97274.63;4953593;28;105029;-62
2023/06/24 08:15:45;;;;;;;2.20;1.87;;;;;;;21.76;100.00;97273.09;4954308;28;102402;-62
2023/06/24 08:18:12;;;;;;;1.90;1.70;;;;;;;21.83;100.00;97265.38;4954126;28;105506;-62
2023/06/24 08:20:39;;;;;;;2.30;1.57;;;;;;;22.00;91.42;97276.41;4971316;28;102594;-62
2023/06/24 08:23:06;;;;;;;1.50;1.40;;;;;;;21.32;79.33;97268.19;4954188;28;102226;-62
2023/06/24 08:25:33;;;;;;;1.40;1.30;;;;;;;21.09;67.45;97269.09;4954102;28;104913;-62
2023/06/24 08:28:00;;;;;;;1.20;1.20;;;;;;;21.12;64.31;97267.72;4953436;28;105174;-62
2023/06/24 08:30:27;;;;;;;1.50;1.40;;;;;;;21.23;62.21;97266.44;4954175;28;102301;-62
2023/06/24 08:32:55;;;;;;;1.83;1.73;;;;;;;21.38;64.43;97263.50;4956691;28;105346;-62
2023/06/24 08:35:22;;;;;;;1.57;1.47;;;;;;;21.25;66.77;97261.56;4953859;28;101943;-62
2023/06/24 08:37:49;;;;;;;1.50;1.40;;;;;;;21.40;75.32;97259.38;4953679;28;105557;-62
2023/06/24 08:40:16;;;;;;;1.50;1.40;;;;;;;21.37;60.65;97259.19;4953247;28;105332;-62
2023/06/24 08:42:44;;;;;;;1.50;1.40;;;;;;;21.36;63.72;97252.97;4953952;28;102068;-62
2023/06/24 08:45:11;;;;;;;1.53;1.43;;;;;;;21.59;66.32;97257.41;4953655;28;105164;-62
2023/06/24 08:47:38;;;;;;;1.40;1.30;;;;;;;21.55;58.19;97259.13;4952625;28;105380;-62
2023/06/24 08:50:12;;;;;;;1.40;1.30;;;;;;;21.40;57.56;97253.16;4953819;28;102224;-62
2023/06/24 08:52:43;;;;;;;1.40;1.30;;;;;;;22.03;63.76;97256.84;4953640;28;106147;-62
2023/06/24 08:55:14;;;;;;;1.37;1.10;;;;;;;22.07;52.13;97257.88;4938879;28;106365;-62
2023/06/24 08:57:41;;;;;;;1.50;1.40;;;;;;;22.09;52.87;97247.53;4971385;28;101680;-62
2023/06/24 09:00:10;;;;;;;1.50;1.40;;;;;;;22.44;58.84;97253.00;4970612;28;103159;-62
2023/06/24 09:02:38;;;;;;;1.20;1.20;;;;;;;22.45;57.54;97256.53;4971252;28;101801;-62
2023/06/24 09:05:07;;;;;;;1.73;1.60;;;;;;;22.17;54.99;97252.25;4953483;28;105163;-62
2023/06/24 09:07:34;;;;;;;1.50;1.40;;;;;;;22.33;57.87;97245.38;4951875;28;105516;-62
2023/06/24 09:10:01;;;;;;;1.60;1.50;;;;;;;21.98;56.28;97246.94;4953298;28;101860;-62
2023/06/24 09:12:29;;;;;;;1.60;1.50;;;;;;;22.15;57.16;97254.44;4953387;28;105092;-62
2023/06/24 09:14:55;;;;;;;1.83;1.73;;;;;;;22.73;75.03;97249.94;4952678;28;105127;-62
2023/06/24 09:17:23;;;;;;;1.50;1.40;;;;;;;22.86;63.75;97243.66;4956607;28;101874;-62
2023/06/24 09:19:50;;;;;;;1.60;1.50;;;;;;;23.19;68.46;97251.28;4952510;28;105822;-62
2023/06/24 09:22:18;;;;;;;1.63;1.53;;;;;;;23.41;62.81;97248.53;4969454;28;101909;-62
2023/06/24 09:24:47;;;;;;;1.80;1.70;;;;;;;23.45;57.60;97251.41;4970803;28;102381;-62
2023/06/24 09:27:15;;;;;;;1.87;1.37;;;;;;;23.34;52.04;97250.06;4970182;28;102658;-62
2023/06/24 09:29:43;;;;;;;1.67;1.57;;;;;;;23.06;49.62;97254.81;4953196;28;101889;-62
2023/06/24 09:32:11;;;;;;;1.43;1.33;;;;;;;22.56;51.42;97244.38;4970702;28;102652;-62
2023/06/24 09:34:39;;;;;;;1.70;1.60;;;;;;;22.58;47.93;97240.25;4952445;28;105364;-62
2023/06/24 09:37:05;;;;;;;1.40;1.30;;;;;;;22.70;49.28;97239.69;4973980;28;101853;-62
2023/06/24 09:39:38;;;;;;;1.73;1.63;;;;;;;22.59;48.82;97239.13;4969983;28;103116;-62
2023/06/24 09:42:07;;;;;;;1.70;1.60;;;;;;;23.10;47.32;97238.72;4970737;28;101763;-62
2023/06/24 09:44:34;;;;;;;1.63;1.50;;;;;;;23.89;50.63;97241.28;4970544;28;102418;-62
2023/06/24 09:47:01;;;;;;;1.77;1.67;;;;;;;23.74;48.22;97240.84;4951930;28;105803;-62
2023/06/24 09:49:28;;;;;;;1.93;1.57;;;;;;;24.43;48.55;97239.97;4970779;28;101909;-62
2023/06/24 09:51:57;;;;;;;1.80;1.70;;;;;;;24.47;47.56;97233.56;4970522;28;102403;-62
2023/06/24 09:54:26;;;;;;;2.80;1.70;;;;;;;24.09;47.17;97240.69;4969610;28;102852;-62
2023/06/24 09:56:57;;;;;;;1.60;1.50;;;;;;;23.77;45.01;97232.09;4968894;28;102115;-62
2023/06/24 09:59:26;;;;;;;1.90;1.80;;;;;;;23.16;48.09;97232.84;4973020;28;102973;-62
2023/06/24 10:01:54;;;;;;;2.00;1.90;;;;;;;23.20;50.27;97230.34;4970226;28;101850;-62
2023/06/24 10:04:22;;;;;;;1.80;1.70;;;;;;;23.31;49.82;97227.06;4970214;28;102978;-62
2023/06/24 10:06:50;;;;;;;1.70;1.60;;;;;;;23.55;50.50;97226.72;4951516;28;105669;-62
2023/06/24 10:09:19;;;;;;;3.53;2.13;;;;;;;23.31;52.85;97224.34;4970127;28;102134;-62
2023/06/24 10:11:47;;;;;;;2.00;1.90;;;;;;;23.20;49.82;97214.06;4970248;28;102560;-62
2023/06/24 10:14:17;;;;;;;2.13;1.93;;;;;;;23.12;48.32;97223.75;4951788;28;105135;-62
2023/06/24 10:16:44;;;;;;;2.20;2.10;;;;;;;23.26;49.44;97218.28;4970049;28;101867;-62
2023/06/24 10:19:11;;;;;;;2.20;2.00;;;;;;;22.96;50.80;97216.28;4969954;28;102415;-62
2023/06/24 10:21:48;;;;;;;2.10;2.00;;;;;;;23.68;51.76;97213.03;4973108;28;102859;-62
2023/06/24 10:24:29;;;;;;;2.10;2.00;;;;;;;23.80;48.83;97217.84;4969995;28;102394;-62
2023/06/24 10:26:56;;;;;;;2.03;1.93;;;;;;;23.28;48.94;97208.69;4969459;28;102684;-62
2023/06/24 10:29:34;;;;;;;2.10;2.00;;;;;;;24.62;52.54;97210.59;4952278;28;102066;-62
2023/06/24 10:32:05;;;;;;;2.20;2.10;;;;;;;25.20;48.77;97210.84;4970121;28;102376;-62
2023/06/24 10:34:34;;;;;;;2.13;2.03;;;;;;;25.57;46.91;97210.94;4951612;28;105670;-62
2023/06/24 10:37:03;;;;;;;1.90;1.80;;;;;;;25.80;50.51;97204.13;4969743;28;101977;-62
2023/06/24 10:39:48;;;;;;;3.13;2.07;;;;;;;25.96;45.97;97204.38;4969756;28;102492;-62
2023/06/24 10:42:39;;;;;;;3.10;2.43;;;;;;;25.26;41.41;97198.69;4969464;28;102682;-62
2023/06/24 10:45:21;;;;;;;1.83;1.73;;;;;;;26.10;44.58;97194.81;4966047;28;102196;-62
2023/06/24 10:47:49;;;;;;;1.90;1.80;;;;;;;25.84;43.18;97187.91;4968653;28;102537;-62
2023/06/24 10:50:19;;;;;;;2.17;2.07;;;;;;;25.27;41.93;97194.84;4969670;28;102146;-62
2023/06/24 10:52:48;;;;;;;2.23;2.10;;;;;;;25.38;44.35;97185.19;4951917;28;105593;-62
2023/06/24 10:55:16;;;;;;;2.20;2.10;;;;;;;25.24;45.59;97190.03;4969019;28;102805;-62
2023/06/24 10:57:45;;;;;;;1.90;1.80;;;;;;;25.69;43.00;97185.72;4951806;28;101926;-62
2023/06/24 11:00:13;;;;;;;2.73;2.00;;;;;;;25.99;44.21;97177.25;4969531;28;102929;-62
2023/06/24 11:02:41;;;;;;;2.17;2.07;;;;;;;26.11;40.33;97173.81;4969016;28;103627;-62
2023/06/24 11:05:09;;;;;;;2.23;1.80;;;;;;;25.66;41.42;97170.81;4951957;28;101877;-62
2023/06/24 11:07:38;;;;;;;2.60;2.40;;;;;;;26.23;46.55;97172.00;4970982;28;105332;-62
2023/06/24 11:10:07;;;;;;;4.20;2.20;;;;;;;26.75;41.92;97170.47;4951810;28;102487;-62
2023/06/24 11:12:35;;;;;;;2.20;2.00;;;;;;;26.52;41.53;97160.19;4951811;28;105234;-62
2023/06/24 11:15:04;;;;;;;2.50;2.00;;;;;;;26.65;45.72;97159.97;4951034;28;105895;-62
2023/06/24 11:17:31;;;;;;;2.17;2.00;;;;;;;26.39;42.09;97153.91;4970632;28;102122;-62
2023/06/24 11:19:59;;;;;;;3.10;2.53;;;;;;;26.54;40.04;97157.97;4955014;28;105215;-63
2023/06/24 11:22:27;;;;;;;2.60;2.20;;;;;;;25.39;43.25;97149.47;4972079;28;102715;-63
2023/06/24 11:24:56;;;;;;;2.10;2.00;;;;;;;25.99;47.46;97141.81;4972698;28;101867;-63
2023/06/24 11:27:27;;;;;;;2.40;2.20;;;;;;;25.76;44.23;97136.94;4972690;28;103285;-63